Bloomfield Hills, Michigan
Current Conditions -  °F | °C
As of 3:34 AM on Saturday 25 Oct 2014 (Local Time) from KVLL Reporting Station
Haze Haze  
Wind Chill: 47°   Ceiling: Unl
Heat Index: 49°   Visibility: 5mi
Dew Point: 46°   Wind: 6mph
Humidity: 87%   Direction: 230°SW
Pressure: 29.92"   Gusts: NA
Location:  42.58°N, 83.25°W
Report Text: KVLL 250734Z AUTO 23005KT 5SM BR CLR 10/08 A2992 RMK AO2 T00960075
Loading
Personal Weather Stations






























Interactive Weather Map
Tropical Storm Tracking
New forecast layout! Learn more

10-Day Weather Forecast

Advertisements
Track Severe Weather on mobile